This is the latest recevied weather packets stored in our database for station/object AB4CZ-1. If no packets are shown the sender has not sent any weather packets the latest 10 day(s).
| Time | Temp. | Humidity | Pressure | Rain* | Wind** | Luminosity | Snow |
|---|---|---|---|---|---|---|---|
| 1777997792 | 26.11° C | 44% | 1016.4 hPa | 0 mm | - | - | - |
| 1777995992 | 26.11° C | 43% | 1016.8 hPa | 0 mm | - | - | - |
| 1777995393 | 25.56° C | 45% | 1016.6 hPa | 0 mm | - | - | - |
| 1777995092 | 25° C | 46% | 1016.7 hPa | 0 mm | - | - | - |
| 1777994494 | 25.56° C | 44% | 1016.7 hPa | 0 mm | - | - | - |
| 1777994192 | 25° C | 46% | 1016.6 hPa | 0 mm | - | - | - |
| 1777994034 | 25° C | 49% | 1016.9 hPa | 0 mm | - | - | - |
| 1777993897 | 25° C | 49% | 1016.9 hPa | 0 mm | - | - | - |
| 1777993592 | 25° C | 47% | 1017 hPa | 0 mm | - | - | - |
| 1777993301 | 25° C | 49% | 1017.1 hPa | 0 mm | - | - | - |
| 1777992393 | 23.89° C | 54% | 1016.9 hPa | 0 mm | - | - | - |
| 1777992144 | 23.33° C | 55% | 1016.8 hPa | 0 mm | - | - | - |
| 1777992099 | 23.33° C | 54% | 1016.9 hPa | 0 mm | - | - | - |
| 1777991807 | 23.33° C | 55% | 1016.8 hPa | 0 mm | - | - | - |
| 1777991493 | 22.78° C | 55% | 1016.8 hPa | 0 mm | - | - | - |
| 1777990908 | 23.33° C | 55% | 1016.9 hPa | 0 mm | - | - | - |
| 1777990680 | 22.78° C | 57% | 1017 hPa | 0 mm | - | - | - |
| 1777990593 | 22.78° C | 57% | 1017 hPa | 0 mm | - | - | - |
| 1777989993 | 22.22° C | 60% | 1017 hPa | 0 mm | - | - | - |
| 1777989703 | 22.22° C | 59% | 1016.9 hPa | 0 mm | - | - | - |
| 1777989393 | 21.67° C | 60% | 1016.9 hPa | 0 mm | - | - | - |
| 1777989104 | 21.67° C | 62% | 1016.9 hPa | 0 mm | - | - | - |
| 1777988846 | 21.11° C | 63% | 1017 hPa | 0 mm | - | - | - |
| 1777988794 | 21.11° C | 63% | 1017 hPa | 0 mm | - | - | - |
| 1777988544 | 20.56° C | 65% | 1016.9 hPa | 0 mm | - | - | - |
* Rain latest hour (hover to see other rain measurements)
** Current wind speed in m/s (hover to see current wind gust speed)